createdAt,value
2018-08-10T00:01:14.718Z,6.17
2018-08-10T00:03:43.240Z,6.27
2018-08-10T00:06:11.768Z,7.20
2018-08-10T00:08:40.223Z,6.43
2018-08-10T00:11:08.764Z,6.53
2018-08-10T00:13:37.248Z,6.67
2018-08-10T00:16:05.748Z,6.70
2018-08-10T00:18:34.249Z,6.10
2018-08-10T00:21:02.706Z,6.37
2018-08-10T00:23:31.204Z,6.60
2018-08-10T00:25:59.713Z,6.83
2018-08-10T00:28:28.217Z,7.83
2018-08-10T00:30:56.731Z,7.87
2018-08-10T00:33:25.259Z,7.03
2018-08-10T00:35:53.772Z,7.40
2018-08-10T00:38:22.283Z,7.70
2018-08-10T00:40:50.792Z,6.93
2018-08-10T00:43:19.357Z,6.70
2018-08-10T00:45:47.891Z,6.40
2018-08-10T00:48:16.351Z,6.50
2018-08-10T00:50:44.863Z,6.97
2018-08-10T00:53:14.065Z,7.47
2018-08-10T00:55:42.594Z,7.27
2018-08-10T00:58:11.167Z,8.17
2018-08-10T01:00:39.655Z,9.67
2018-08-10T01:03:08.197Z,8.00
2018-08-10T01:05:36.685Z,10.00
2018-08-10T01:08:05.290Z,8.30
2018-08-10T01:10:33.804Z,9.90
2018-08-10T01:13:02.336Z,13.03
2018-08-10T01:15:30.837Z,8.40
2018-08-10T01:17:59.357Z,8.57
2018-08-10T01:20:27.859Z,8.87
2018-08-10T01:23:01.515Z,8.30
2018-08-10T01:25:30.106Z,7.47
2018-08-10T01:28:01.785Z,8.73
2018-08-10T01:30:31.541Z,7.73
2018-08-10T01:33:00.247Z,10.47
2018-08-10T01:35:29.275Z,7.10
2018-08-10T01:37:58.869Z,6.80
2018-08-10T01:40:27.417Z,6.67
2018-08-10T01:42:55.895Z,6.20
2018-08-10T01:45:24.412Z,6.83
2018-08-10T01:47:53.038Z,8.87
2018-08-10T01:50:21.525Z,9.50
2018-08-10T01:52:50.059Z,9.43
2018-08-10T01:55:18.621Z,8.87
2018-08-10T01:57:47.172Z,10.10
2018-08-10T02:00:15.712Z,9.10
2018-08-10T02:02:44.200Z,9.20
2018-08-10T02:05:13.897Z,8.20
2018-08-10T02:07:42.903Z,8.37
2018-08-10T02:10:13.029Z,8.77
2018-08-10T02:12:42.492Z,8.70
2018-08-10T02:15:13.175Z,8.73
2018-08-10T02:17:41.673Z,8.90
2018-08-10T02:20:12.070Z,8.63
2018-08-10T02:22:40.639Z,11.00
2018-08-10T02:25:10.778Z,9.63
2018-08-10T02:27:39.341Z,11.77
2018-08-10T02:30:09.509Z,9.93
2018-08-10T02:32:38.458Z,9.90
2018-08-10T02:35:07.284Z,11.70
2018-08-10T02:37:36.011Z,9.93
2018-08-10T02:40:05.207Z,10.90
2018-08-10T02:42:33.725Z,10.47
2018-08-10T02:45:02.223Z,10.27
2018-08-10T02:47:30.776Z,10.30
2018-08-10T02:49:59.256Z,12.10
2018-08-10T02:52:27.745Z,10.00
2018-08-10T02:54:56.208Z,9.67
2018-08-10T02:57:24.731Z,10.53
2018-08-10T02:59:53.256Z,10.47
2018-08-10T03:02:21.796Z,10.37
2018-08-10T03:04:50.306Z,9.20
2018-08-10T03:07:18.826Z,9.27
2018-08-10T03:09:47.411Z,10.10
2018-08-10T03:12:15.986Z,11.13
2018-08-10T03:14:44.516Z,10.30
2018-08-10T03:17:12.994Z,9.03
2018-08-10T03:19:41.516Z,8.33
2018-08-10T03:22:10.115Z,10.40
2018-08-10T03:24:38.624Z,9.07
2018-08-10T03:27:07.730Z,9.73
2018-08-10T03:29:36.705Z,9.20
2018-08-10T03:32:05.360Z,9.80
2018-08-10T03:34:33.929Z,9.47
2018-08-10T03:37:02.441Z,8.60
2018-08-10T03:39:30.938Z,9.03
2018-08-10T03:41:59.436Z,9.17
2018-08-10T03:44:27.944Z,9.63
2018-08-10T03:46:56.468Z,9.93
2018-08-10T03:49:24.984Z,11.37
2018-08-10T03:51:53.618Z,9.47
2018-08-10T03:54:22.123Z,10.03
2018-08-10T03:56:50.619Z,11.27
2018-08-10T03:59:19.137Z,10.27
2018-08-10T04:01:47.650Z,12.57
2018-08-10T04:04:16.136Z,10.10
2018-08-10T04:06:44.635Z,11.70
2018-08-10T04:09:13.388Z,11.03
2018-08-10T04:11:42.588Z,11.00
2018-08-10T04:14:11.091Z,9.50
2018-08-10T04:16:39.624Z,9.03
2018-08-10T04:19:08.071Z,9.83
2018-08-10T04:21:36.546Z,9.87
2018-08-10T04:24:05.059Z,10.10
2018-08-10T04:26:33.548Z,9.63
2018-08-10T04:29:02.042Z,12.10
2018-08-10T04:31:30.598Z,11.93
2018-08-10T04:33:59.157Z,11.53
2018-08-10T04:36:27.750Z,10.97
2018-08-10T04:38:56.260Z,10.53
2018-08-10T04:41:24.756Z,11.63
2018-08-10T04:43:53.220Z,10.83
2018-08-10T04:46:21.716Z,12.97
2018-08-10T04:48:50.239Z,11.80
2018-08-10T04:51:18.736Z,15.17
2018-08-10T04:53:47.254Z,14.10
2018-08-10T04:56:15.721Z,14.50
2018-08-10T04:58:44.232Z,14.07
2018-08-10T05:01:12.822Z,12.63
2018-08-10T05:03:41.403Z,13.57
2018-08-10T05:06:09.881Z,12.90
2018-08-10T05:08:38.434Z,14.10
2018-08-10T05:11:07.558Z,10.43
2018-08-10T05:13:36.107Z,11.27
2018-08-10T05:16:04.621Z,16.80
2018-08-10T05:18:33.081Z,11.20
2018-08-10T05:21:01.557Z,12.47
2018-08-10T05:23:30.055Z,13.13
2018-08-10T05:25:58.637Z,13.30
2018-08-10T05:28:27.238Z,13.03
2018-08-10T05:30:55.753Z,12.90
2018-08-10T05:33:24.271Z,18.53
2018-08-10T05:35:52.772Z,12.30
2018-08-10T05:38:21.261Z,11.43
2018-08-10T05:40:49.797Z,16.97
2018-08-10T05:43:18.291Z,11.90
2018-08-10T05:45:46.778Z,17.13
2018-08-10T05:48:15.277Z,12.43
2018-08-10T05:50:43.928Z,12.73
2018-08-10T05:53:12.418Z,14.63
2018-08-10T05:55:40.932Z,12.07
2018-08-10T05:58:09.411Z,12.00
2018-08-10T06:00:37.958Z,12.60
2018-08-10T06:03:06.498Z,12.90
2018-08-10T06:05:35.027Z,12.70
2018-08-10T06:08:03.501Z,11.83
2018-08-10T06:10:32.024Z,14.37
2018-08-10T06:13:01.437Z,13.17
2018-08-10T06:15:30.017Z,13.77
2018-08-10T06:17:58.502Z,11.73
2018-08-10T06:20:26.981Z,13.00
2018-08-10T06:22:55.530Z,11.37
2018-08-10T06:25:23.948Z,14.73
2018-08-10T06:27:52.510Z,11.43
2018-08-10T06:30:21.063Z,12.93
2018-08-10T06:32:49.595Z,10.97
2018-08-10T06:35:18.131Z,11.07
2018-08-10T06:37:46.645Z,12.63
2018-08-10T06:40:15.303Z,11.43
2018-08-10T06:42:43.790Z,14.47
2018-08-10T06:45:12.362Z,11.80
2018-08-10T06:47:40.811Z,10.47
2018-08-10T06:50:09.342Z,12.03
2018-08-10T06:52:37.815Z,12.57
2018-08-10T06:55:06.321Z,10.90
2018-08-10T06:57:35.049Z,9.83
2018-08-10T07:00:03.557Z,9.77
2018-08-10T07:02:32.019Z,8.87
2018-08-10T07:05:00.505Z,13.30
2018-08-10T07:07:28.998Z,9.73
2018-08-10T07:09:57.485Z,10.93
2018-08-10T07:12:25.937Z,10.23
2018-08-10T07:14:54.378Z,9.87
2018-08-10T07:17:22.894Z,9.43
2018-08-10T07:19:51.361Z,9.10
2018-08-10T07:22:19.869Z,10.10
2018-08-10T07:24:48.342Z,9.83
2018-08-10T07:27:16.930Z,9.63
2018-08-10T07:29:45.410Z,10.10
2018-08-10T07:32:13.915Z,10.60
2018-08-10T07:34:42.419Z,12.20
2018-08-10T07:37:10.968Z,12.40
2018-08-10T07:39:39.412Z,10.50
2018-08-10T07:42:07.915Z,11.33
2018-08-10T07:44:36.355Z,11.07
2018-08-10T07:47:04.847Z,11.57
2018-08-10T07:49:33.338Z,10.93
2018-08-10T07:52:01.822Z,10.23
2018-08-10T07:54:30.348Z,11.00
2018-08-10T07:56:58.802Z,11.83
2018-08-10T07:59:27.288Z,11.43
2018-08-10T08:01:55.792Z,10.80
2018-08-10T08:04:24.259Z,11.60
2018-08-10T08:06:52.808Z,10.53
2018-08-10T08:09:21.338Z,11.05
2018-08-10T08:11:50.472Z,10.00
2018-08-10T08:14:18.971Z,10.40
2018-08-10T08:16:47.529Z,11.78
2018-08-10T08:19:16.061Z,9.83
2018-08-10T08:21:50.195Z,10.18
2018-08-10T08:24:18.687Z,11.60
2018-08-10T08:26:47.179Z,10.70
2018-08-10T08:29:15.699Z,11.20
2018-08-10T08:31:44.189Z,11.45
2018-08-10T08:34:12.696Z,12.00
2018-08-10T08:36:41.261Z,12.03
2018-08-10T08:39:21.190Z,11.80
2018-08-10T08:41:49.682Z,11.13
2018-08-10T08:44:24.610Z,11.53
2018-08-10T08:46:53.124Z,17.90
2018-08-10T08:49:21.634Z,12.05
2018-08-10T08:51:50.148Z,11.33
2018-08-10T08:56:26.758Z,10.03
2018-08-10T08:58:55.256Z,13.97
2018-08-10T09:01:23.792Z,9.73
2018-08-10T09:04:57.992Z,9.37
2018-08-10T09:07:27.592Z,10.60
2018-08-10T09:09:56.232Z,13.53
2018-08-10T09:12:24.727Z,12.07
2018-08-10T09:14:54.911Z,10.23
2018-08-10T09:17:23.452Z,10.27
2018-08-10T09:19:52.003Z,9.70
2018-08-10T09:22:20.512Z,10.87
2018-08-10T09:24:49.043Z,10.87
2018-08-10T09:27:17.572Z,11.43
2018-08-10T09:29:46.183Z,12.40
2018-08-10T09:32:14.688Z,12.27
2018-08-10T09:34:43.254Z,11.90
2018-08-10T09:37:12.042Z,11.70
2018-08-10T09:39:40.604Z,13.93
2018-08-10T09:42:09.283Z,12.73
2018-08-10T09:44:37.827Z,12.58
2018-08-10T09:47:07.023Z,12.25
2018-08-10T09:49:38.587Z,13.68
2018-08-10T09:52:07.110Z,16.70
2018-08-10T09:54:41.114Z,13.60
2018-08-10T09:57:09.584Z,13.20
2018-08-10T09:59:38.084Z,12.90
2018-08-10T10:02:13.773Z,12.55
2018-08-10T10:04:42.316Z,13.95
2018-08-10T10:07:10.827Z,13.55
2018-08-10T10:09:39.275Z,14.65
2018-08-10T10:12:07.808Z,13.62
2018-08-10T10:14:36.363Z,13.35
2018-08-10T10:17:04.914Z,14.38
2018-08-10T10:19:33.501Z,13.00
2018-08-10T10:22:01.996Z,18.20
2018-08-10T10:24:30.526Z,13.60
2018-08-10T10:26:59.011Z,17.35
2018-08-10T10:29:27.497Z,17.30
2018-08-10T10:31:55.967Z,13.98
2018-08-10T10:34:24.480Z,12.37
2018-08-10T10:36:53.050Z,13.05
2018-08-10T10:39:21.607Z,14.58
2018-08-10T10:41:50.114Z,14.47
2018-08-10T10:44:18.609Z,12.90
2018-08-10T10:46:47.103Z,13.40
2018-08-10T10:49:15.642Z,14.73
2018-08-10T10:51:44.157Z,14.38
2018-08-10T10:54:12.651Z,13.35
2018-08-10T10:56:41.221Z,15.48
2018-08-10T10:59:09.724Z,14.98
2018-08-10T11:01:38.230Z,15.90
2018-08-10T11:04:06.706Z,16.48
2018-08-10T11:06:35.155Z,16.62
2018-08-10T11:09:04.896Z,15.53
2018-08-10T11:11:33.411Z,15.05
2018-08-10T11:14:01.957Z,16.62
2018-08-10T11:16:30.458Z,15.83
2018-08-10T11:18:58.944Z,15.85
2018-08-10T11:21:27.469Z,16.50
2018-08-10T11:23:55.966Z,16.75
2018-08-10T11:26:24.469Z,16.77
2018-08-10T11:28:52.948Z,16.15
2018-08-10T11:31:21.451Z,16.55
2018-08-10T11:33:50.064Z,16.15
2018-08-10T11:36:18.562Z,14.85
2018-08-10T11:38:47.108Z,13.90
2018-08-10T11:41:15.619Z,14.95
2018-08-10T11:43:44.097Z,13.22
2018-08-10T11:46:12.580Z,13.22
2018-08-10T11:49:20.879Z,12.90
2018-08-10T11:51:49.459Z,13.22
2018-08-10T11:54:17.962Z,12.07
2018-08-10T11:56:46.428Z,12.60
2018-08-10T11:59:14.917Z,12.35
2018-08-10T12:01:43.428Z,15.10
2018-08-10T12:04:11.880Z,12.73
2018-08-10T12:06:40.382Z,13.68
2018-08-10T12:09:10.298Z,13.08
2018-08-10T12:11:39.528Z,12.93
2018-08-10T12:14:08.079Z,13.28
2018-08-10T12:16:36.610Z,14.15
2018-08-10T12:19:05.278Z,13.65
2018-08-10T12:21:33.748Z,13.13
2018-08-10T12:24:02.285Z,13.15
2018-08-10T12:26:30.787Z,12.20
2018-08-10T12:28:59.244Z,12.68
2018-08-10T12:31:27.717Z,13.03
2018-08-10T12:33:56.241Z,13.28
2018-08-10T12:36:24.737Z,13.43
2018-08-10T12:38:53.327Z,13.22
2018-08-10T12:41:21.860Z,13.60
2018-08-10T12:43:50.372Z,18.90
2018-08-10T12:46:18.937Z,15.83
2018-08-10T12:48:47.489Z,15.78
2018-08-10T12:51:16.063Z,19.30
2018-08-10T12:53:44.560Z,18.92
2018-08-10T12:56:13.043Z,18.40
2018-08-10T12:58:41.519Z,17.92
2018-08-10T13:01:10.028Z,18.17
2018-08-10T13:03:38.504Z,16.90
2018-08-10T13:06:07.026Z,17.73
2018-08-10T13:08:35.544Z,18.02
2018-08-10T13:11:04.040Z,15.68
2018-08-10T13:13:32.599Z,14.47
2018-08-10T13:16:01.138Z,13.95
2018-08-10T13:18:29.716Z,14.43
2018-08-10T13:20:58.153Z,13.50
2018-08-10T13:23:26.652Z,13.88
2018-08-10T13:25:55.162Z,13.08
2018-08-10T13:28:23.659Z,13.95
2018-08-10T13:30:52.150Z,14.00
2018-08-10T13:33:20.637Z,14.43
2018-08-10T13:35:49.108Z,13.88
2018-08-10T13:38:17.577Z,16.97
2018-08-10T13:40:46.084Z,13.78
2018-08-10T13:43:14.560Z,12.85
2018-08-10T13:45:43.073Z,12.65
2018-08-10T13:48:11.538Z,13.43
2018-08-10T13:50:40.058Z,12.10
2018-08-10T13:53:08.573Z,12.65
2018-08-10T13:55:37.122Z,12.90
2018-08-10T13:58:05.646Z,13.05
2018-08-10T14:00:34.162Z,13.05
2018-08-10T14:03:02.673Z,12.65
2018-08-10T14:05:31.238Z,10.75
2018-08-10T14:07:59.757Z,12.85
2018-08-10T14:10:28.285Z,12.37
2018-08-10T14:12:56.808Z,12.93
2018-08-10T14:15:25.303Z,12.60
2018-08-10T14:17:53.823Z,11.38
2018-08-10T14:20:22.352Z,8.00
2018-08-10T14:22:50.843Z,7.67
2018-08-10T14:25:19.361Z,7.30
2018-08-10T14:27:47.896Z,7.65
2018-08-10T14:30:16.728Z,7.05
2018-08-10T14:32:45.180Z,5.95
2018-08-10T14:35:13.908Z,6.40
2018-08-10T14:37:42.388Z,5.90
2018-08-10T14:40:11.579Z,5.47
2018-08-10T14:42:40.146Z,6.17
2018-08-10T14:45:12.235Z,8.05
2018-08-10T14:47:40.805Z,6.20
2018-08-10T14:50:14.754Z,6.65
2018-08-10T14:52:43.318Z,7.37
2018-08-10T14:55:16.139Z,9.85
2018-08-10T14:57:44.687Z,7.83
2018-08-10T15:00:14.296Z,8.58
2018-08-10T15:02:42.924Z,7.87
2018-08-10T15:05:11.424Z,7.92
2018-08-10T15:07:39.918Z,7.40
2018-08-10T15:10:09.740Z,7.58
2018-08-10T15:12:38.899Z,8.88
2018-08-10T15:15:07.853Z,6.87
2018-08-10T15:17:36.370Z,7.50
2018-08-10T15:20:05.283Z,11.25
2018-08-10T15:22:33.788Z,6.47
2018-08-10T15:25:02.368Z,6.53
2018-08-10T15:27:30.862Z,6.80
2018-08-10T15:29:59.365Z,8.28
2018-08-10T15:32:27.864Z,6.60
2018-08-10T15:34:56.339Z,7.15
2018-08-10T15:37:25.201Z,8.18
2018-08-10T15:39:53.750Z,6.17
2018-08-10T15:42:22.258Z,5.90
2018-08-10T15:44:50.800Z,8.83
2018-08-10T15:47:19.291Z,5.20
2018-08-10T15:49:47.835Z,5.53
2018-08-10T15:52:16.431Z,5.40
2018-08-10T15:54:44.908Z,6.53
2018-08-10T15:57:13.411Z,5.78
2018-08-10T15:59:41.950Z,7.90
2018-08-10T16:02:10.543Z,5.00
2018-08-10T16:04:38.997Z,6.28
2018-08-10T16:07:07.511Z,5.00
2018-08-10T16:09:36.006Z,9.35
2018-08-10T16:12:04.500Z,7.87
2018-08-10T16:14:32.995Z,6.03
2018-08-10T16:17:01.441Z,8.43
2018-08-10T16:19:29.928Z,6.75
2018-08-10T16:21:58.409Z,4.15
2018-08-10T16:24:26.863Z,6.55
2018-08-10T16:26:55.375Z,4.70
2018-08-10T16:29:23.856Z,4.75
2018-08-10T16:31:52.366Z,4.97
2018-08-10T16:34:20.835Z,7.97
2018-08-10T16:36:49.319Z,6.20
2018-08-10T16:39:17.824Z,6.00
2018-08-10T16:41:46.329Z,5.72
2018-08-10T16:44:14.810Z,5.67
2018-08-10T16:46:43.305Z,4.67
2018-08-10T16:49:11.791Z,5.08
2018-08-10T16:51:40.340Z,4.70
2018-08-10T16:54:08.845Z,4.72
2018-08-10T16:56:37.306Z,5.70
2018-08-10T16:59:05.851Z,7.40
2018-08-10T17:01:34.303Z,4.72
2018-08-10T17:04:02.884Z,5.45
2018-08-10T17:06:31.365Z,5.67
2018-08-10T17:08:59.889Z,5.12
2018-08-10T17:11:28.396Z,6.40
2018-08-10T17:13:56.893Z,5.15
2018-08-10T17:16:25.445Z,4.83
2018-08-10T17:18:53.944Z,4.67
2018-08-10T17:21:22.487Z,5.62
2018-08-10T17:23:51.007Z,5.40
2018-08-10T17:26:19.503Z,4.87
2018-08-10T17:28:48.056Z,5.35
2018-08-10T17:31:16.561Z,4.60
2018-08-10T17:33:45.035Z,5.55
2018-08-10T17:36:13.535Z,5.67
2018-08-10T17:38:42.061Z,5.70
2018-08-10T17:41:10.667Z,7.40
2018-08-10T17:43:39.136Z,8.23
2018-08-10T17:46:07.696Z,7.30
2018-08-10T17:48:36.225Z,8.38
2018-08-10T17:51:04.727Z,13.83
2018-08-10T17:53:33.265Z,9.60
2018-08-10T17:56:01.762Z,16.40
2018-08-10T17:58:30.351Z,8.60
2018-08-10T18:00:58.868Z,11.23
2018-08-10T18:03:27.344Z,8.67
2018-08-10T18:05:55.869Z,10.00
2018-08-10T18:08:24.365Z,9.60
2018-08-10T18:10:52.950Z,11.63
2018-08-10T18:13:21.477Z,12.47
2018-08-10T18:15:50.140Z,9.60
2018-08-10T18:18:18.640Z,9.53
2018-08-10T18:20:47.119Z,12.10
2018-08-10T18:23:15.695Z,9.67
2018-08-10T18:25:44.256Z,9.67
2018-08-10T18:28:12.787Z,9.63
2018-08-10T18:30:41.341Z,9.93
2018-08-10T18:33:09.841Z,8.23
2018-08-10T18:35:38.390Z,8.00
2018-08-10T18:38:06.870Z,8.87
2018-08-10T18:40:35.409Z,9.33
2018-08-10T18:43:03.971Z,14.17
2018-08-10T18:45:32.489Z,11.47
2018-08-10T18:48:01.030Z,10.27
2018-08-10T18:50:29.549Z,13.07
2018-08-10T18:52:58.049Z,13.03
2018-08-10T18:55:26.562Z,11.03
2018-08-10T18:57:55.057Z,9.37
2018-08-10T19:00:24.420Z,10.30
2018-08-10T19:02:53.051Z,10.43
2018-08-10T19:05:21.555Z,11.03
2018-08-10T19:07:50.290Z,10.80
2018-08-10T19:10:21.435Z,12.40
2018-08-10T19:12:50.017Z,11.67
2018-08-10T19:15:18.583Z,12.43
2018-08-10T19:17:47.243Z,13.53
2018-08-10T19:20:16.105Z,12.60
2018-08-10T19:22:44.896Z,12.83
2018-08-10T19:25:14.353Z,12.50
2018-08-10T19:27:42.887Z,10.10
2018-08-10T19:30:15.374Z,9.80
2018-08-10T19:32:45.034Z,10.43
2018-08-10T19:35:13.540Z,12.27
2018-08-10T19:37:42.363Z,9.83
2018-08-10T19:40:12.728Z,10.23
2018-08-10T19:42:41.308Z,9.23
2018-08-10T19:45:10.511Z,9.70
2018-08-10T19:47:39.304Z,11.03
2018-08-10T19:50:08.735Z,13.20
2018-08-10T19:52:37.496Z,9.93
2018-08-10T19:55:06.804Z,13.03
2018-08-10T19:57:35.465Z,11.10
2018-08-10T20:00:05.050Z,13.07
2018-08-10T20:02:33.553Z,13.00
2018-08-10T20:05:02.116Z,13.43
2018-08-10T20:07:30.656Z,10.83
2018-08-10T20:09:59.122Z,11.77
2018-08-10T20:12:27.647Z,13.27
2018-08-10T20:14:56.178Z,12.90
2018-08-10T20:17:24.670Z,12.03
2018-08-10T20:19:53.189Z,12.07
2018-08-10T20:22:21.689Z,11.70
2018-08-10T20:24:50.514Z,10.93
2018-08-10T20:27:19.056Z,16.40
2018-08-10T20:29:47.577Z,13.57
2018-08-10T20:32:16.091Z,12.07
2018-08-10T20:34:44.564Z,12.43
2018-08-10T20:37:13.068Z,12.97
2018-08-10T20:39:41.552Z,11.43
2018-08-10T20:42:10.076Z,11.77
2018-08-10T20:44:38.620Z,11.83
2018-08-10T20:47:07.114Z,11.97
2018-08-10T20:49:35.594Z,10.80
2018-08-10T20:52:04.144Z,11.10
2018-08-10T20:54:32.608Z,10.60
2018-08-10T20:57:01.099Z,11.53
2018-08-10T20:59:29.629Z,12.10
2018-08-10T21:01:58.131Z,11.77
2018-08-10T21:04:26.696Z,11.47
2018-08-10T21:06:55.143Z,11.77
2018-08-10T21:09:23.680Z,13.17
2018-08-10T21:11:52.176Z,12.20
2018-08-10T21:14:20.695Z,11.40
2018-08-10T21:16:49.135Z,11.07
2018-08-10T21:19:17.587Z,10.50
2018-08-10T21:21:46.090Z,9.87
2018-08-10T21:24:14.591Z,11.87
2018-08-10T21:26:43.105Z,10.30
2018-08-10T21:29:11.636Z,12.07
2018-08-10T21:31:40.174Z,11.50
2018-08-10T21:34:08.689Z,10.90
2018-08-10T21:36:37.222Z,11.13
2018-08-10T21:39:07.148Z,12.80
2018-08-10T21:41:35.641Z,12.70
2018-08-10T21:44:04.211Z,11.90
2018-08-10T21:46:32.868Z,11.63
2018-08-10T21:49:01.326Z,12.07
2018-08-10T21:51:30.118Z,12.73
2018-08-10T21:53:58.655Z,11.83
2018-08-10T21:56:27.156Z,11.43
2018-08-10T21:58:55.696Z,12.33
2018-08-10T22:01:24.206Z,15.33
2018-08-10T22:03:52.655Z,11.93
2018-08-10T22:06:21.156Z,14.97
2018-08-10T22:08:49.636Z,11.57
2018-08-10T22:11:18.158Z,11.03
2018-08-10T22:13:51.894Z,14.93
2018-08-10T22:16:25.769Z,11.87
2018-08-10T22:18:59.621Z,12.43
2018-08-10T22:21:28.117Z,13.13
2018-08-10T22:23:56.576Z,14.70
2018-08-10T22:26:25.088Z,11.63
2018-08-10T22:28:53.573Z,11.53
2018-08-10T22:31:22.061Z,11.53
2018-08-10T22:33:50.568Z,12.50
2018-08-10T22:36:19.074Z,13.47
2018-08-10T22:38:47.620Z,13.57
2018-08-10T22:41:16.143Z,15.23
2018-08-10T22:43:44.639Z,14.13
2018-08-10T22:46:13.252Z,12.27
2018-08-10T22:48:41.744Z,12.30
2018-08-10T22:51:10.222Z,13.20
2018-08-10T22:53:38.856Z,12.80
2018-08-10T22:56:07.723Z,12.63
2018-08-10T22:58:36.294Z,12.27
2018-08-10T23:01:04.853Z,14.73
2018-08-10T23:03:33.404Z,11.37
2018-08-10T23:06:01.908Z,11.03
2018-08-10T23:08:30.496Z,11.77
2018-08-10T23:10:58.967Z,11.77
2018-08-10T23:13:27.514Z,13.37
2018-08-10T23:15:56.008Z,15.63
2018-08-10T23:18:24.533Z,17.37
2018-08-10T23:20:53.029Z,11.13
2018-08-10T23:23:21.578Z,11.13
2018-08-10T23:25:50.060Z,12.10
2018-08-10T23:28:18.569Z,12.53
2018-08-10T23:30:47.090Z,14.40
2018-08-10T23:33:15.551Z,12.97
2018-08-10T23:35:44.021Z,14.30
2018-08-10T23:38:12.573Z,12.03
2018-08-10T23:40:41.115Z,12.87
2018-08-10T23:43:09.659Z,15.53
2018-08-10T23:45:38.160Z,11.70
2018-08-10T23:48:06.790Z,12.17
2018-08-10T23:50:35.412Z,12.97
2018-08-10T23:53:03.899Z,13.10
2018-08-10T23:55:32.485Z,11.77
2018-08-10T23:58:00.996Z,13.03
